Staples, MN

8:38 PM CDT on May 25, 2017 (GMT -0500)
Staples Municipal

Weather History for KSAZ - May, 2013

Change the Weather History Date:

Tuesday, May 14, 2013

  Actual Average Record
Temperature  
Mean Temperature 66 °F -  
Max Temperature 91 °F 62 °F 91 °F (2013)
Min Temperature 41 °F 40 °F 26 °F (2016)
Cooling Degree Days 1    
Growing Degree Days 16 (Base 50)    
Moisture  
Dew Point 41 °F    
Average Humidity 50    
Maximum Humidity 93    
Minimum Humidity 13    
Precipitation  
Precipitation 0.01 in - - ()
Sea Level Pressure  
Sea Level Pressure 29.61 in    
Wind  
Wind Speed 7 mph (West)    
Max Wind Speed 32 mph    
Max Gust Speed 43 mph    
Visibility 10 miles    
Events Rain    
Averages and records for this station are not official NWS values.
T = Trace of Precipitation, MM = Missing Value Source: NWS Daily Summary

Daily Weather History Graph

Daily Weather History Graph

Search for Another Location

Airport or City:

Trip Planner

Search our weather history database for the weather conditions in past years. The results will help you decide how hot, cold, wet, or windy it might be!

Date:

Astronomy

May. 14, 2013 Rise Set
Actual Time 5:46 AM CDT 8:45 PM CDT
Civil Twilight 5:11 AM CDT 9:20 PM CDT
Nautical Twilight 4:26 AM CDT 10:06 PM CDT
Astronomical Twilight 3:31 AM CDT 11:01 PM CDT
Moon 9:27 AM CDT (5/14) No Moon Set
Length of Visible Light 16h 09m
Length of Day
14h 58m
Waxing Crescent, 19% of the Moon is Illuminated
May 14
Waxing Crescent
May 17
First Quarter
May 24
Full
May 31
Last Quarter
Jun 8
New

Hourly Weather History & Observations

Time (CDT) Temp. Windchill Dew Point Humidity Pressure Visibility Wind Dir Wind Speed Gust Speed Precip Events Conditions
12:14 AM 50.0 °F - 41.0 °F 71% 29.66 in 10.0 mi Calm Calm - N/A   Clear
12:33 AM 51.8 °F - 42.8 °F 71% 29.67 in 10.0 mi Calm Calm - N/A   Clear
12:53 AM 44.6 °F - 39.2 °F 81% 29.66 in 10.0 mi Calm Calm - N/A   Clear
1:14 AM 48.2 °F - 42.8 °F 82% 29.67 in 10.0 mi Calm Calm - N/A   Clear
1:33 AM 46.4 °F - 41.0 °F 81% 29.66 in 10.0 mi Calm Calm - N/A   Clear
1:53 AM 46.4 °F - 41.0 °F 81% 29.66 in 10.0 mi Calm Calm - N/A   Clear
2:14 AM 46.4 °F - 41.0 °F 81% 29.66 in 10.0 mi Calm Calm - N/A   Clear
2:33 AM 46.4 °F - 41.0 °F 81% 29.67 in 10.0 mi Calm Calm - N/A   Clear
2:53 AM 46.4 °F - 41.0 °F 81% 29.66 in 10.0 mi Calm Calm - N/A   Clear
3:14 AM 42.8 °F - 39.2 °F 87% 29.66 in 10.0 mi Calm Calm - N/A   Clear
3:33 AM 44.6 °F - 39.2 °F 81% 29.66 in 10.0 mi Calm Calm - N/A   Clear
3:53 AM 44.6 °F - 41.0 °F 87% 29.65 in 10.0 mi Calm Calm - N/A   Clear
4:14 AM 44.6 °F - 39.2 °F 81% 29.65 in 10.0 mi Calm Calm - N/A   Clear
4:33 AM 42.8 °F - 39.2 °F 87% 29.64 in 10.0 mi Calm Calm - N/A   Clear
4:54 AM 42.8 °F - 39.2 °F 87% 29.64 in 10.0 mi Calm Calm - N/A   Clear
5:13 AM 44.6 °F - 41.0 °F 87% 29.63 in 10.0 mi Calm Calm - N/A   Clear
5:33 AM 41.0 °F 39.0 °F 39.2 °F 93% 29.62 in 10.0 mi SSE 3.5 mph - N/A   Clear
5:52 AM 42.8 °F 40.1 °F 39.2 °F 87% 29.61 in 10.0 mi SSE 4.6 mph - N/A   Clear
6:13 AM 48.2 °F - 42.8 °F 82% 29.60 in 10.0 mi South 3.5 mph - N/A   Clear
6:34 AM 48.2 °F - 42.8 °F 82% 29.61 in 10.0 mi SSW 4.6 mph - N/A   Clear
6:53 AM 51.8 °F - 42.8 °F 71% 29.64 in 10.0 mi SW 4.6 mph - N/A   Clear
7:13 AM 55.4 °F - 42.8 °F 63% 29.59 in 10.0 mi SSE 8.1 mph - N/A   Scattered Clouds
7:34 AM 59.0 °F - 41.0 °F 51% 29.58 in 10.0 mi SSE 8.1 mph - N/A   Clear
7:53 AM 57.2 °F - 42.8 °F 59% 29.60 in 10.0 mi South 9.2 mph - N/A   Scattered Clouds
8:13 AM 60.8 °F - 41.0 °F 48% 29.64 in 10.0 mi SSW 4.6 mph - N/A   Mostly Cloudy
8:33 AM 60.8 °F - 41.0 °F 48% 29.71 in 10.0 mi NNW 11.5 mph 18.4 mph N/A Rain Light Rain
8:53 AM 55.4 °F - 46.4 °F 72% 29.72 in 10.0 mi North 6.9 mph - 0.01 in Rain Light Rain
9:13 AM 57.2 °F - 46.4 °F 67% 29.69 in 10.0 mi ENE 5.8 mph - N/A   Scattered Clouds
9:33 AM 60.8 °F - 46.4 °F 59% 29.63 in 10.0 mi East 9.2 mph - N/A   Clear
9:53 AM 62.6 °F - 46.4 °F 55% 29.61 in 10.0 mi East 9.2 mph - N/A   Clear
10:14 AM 66.2 °F - 46.4 °F 49% 29.59 in 10.0 mi East 6.9 mph - N/A   Clear
10:33 AM 68.0 °F - 42.8 °F 40% 29.58 in 10.0 mi East 9.2 mph - N/A   Clear
10:53 AM 69.8 °F - 42.8 °F 38% 29.56 in 10.0 mi East 12.7 mph 18.4 mph N/A   Clear
11:14 AM 71.6 °F - 41.0 °F 33% 29.55 in 10.0 mi ESE 9.2 mph 19.6 mph N/A   Clear
11:33 AM 73.4 °F - 42.8 °F 33% 29.55 in 10.0 mi ESE 5.8 mph 18.4 mph N/A   Clear
11:54 AM 75.2 °F - 42.8 °F 31% 29.55 in 10.0 mi SE 9.2 mph - N/A   Clear
12:13 PM 78.8 °F - 42.8 °F 28% 29.56 in 10.0 mi South 11.5 mph - N/A   Clear
12:33 PM 78.8 °F - 42.8 °F 28% 29.56 in 10.0 mi SSE 8.1 mph - N/A   Clear
12:54 PM 82.4 °F - 42.8 °F 25% 29.55 in 10.0 mi South 10.4 mph 16.1 mph N/A   Clear
1:13 PM 84.2 °F - 44.6 °F 25% 29.54 in 10.0 mi SSW 9.2 mph 16.1 mph N/A   Clear
1:33 PM 86.0 °F - 44.6 °F 23% 29.53 in 10.0 mi SSW 12.7 mph 16.1 mph N/A   Clear
1:53 PM 86.0 °F - 44.6 °F 23% 29.52 in 10.0 mi SW 9.2 mph 20.7 mph N/A   Clear
2:13 PM 87.8 °F - 44.6 °F 22% 29.51 in 10.0 mi WSW 8.1 mph - N/A   Clear
2:33 PM 87.8 °F - 44.6 °F 22% 29.50 in 10.0 mi SSW 12.7 mph 18.4 mph N/A   Clear
2:53 PM 89.6 °F - 42.8 °F 20% 29.50 in 10.0 mi West 17.3 mph 24.2 mph N/A   Clear
3:13 PM 91.4 °F - 37.4 °F 15% 29.50 in 10.0 mi West 18.4 mph 31.1 mph N/A   Clear
3:33 PM 91.4 °F - 33.8 °F 13% 29.50 in 10.0 mi WNW 25.3 mph 35.7 mph N/A   Clear
3:53 PM 89.6 °F - 35.6 °F 15% 29.50 in 10.0 mi WNW 25.3 mph 33.4 mph N/A   Clear
4:14 PM 89.6 °F - 37.4 °F 16% 29.50 in 10.0 mi West 21.9 mph 33.4 mph N/A   Clear
4:33 PM 87.8 °F - 39.2 °F 18% 29.51 in 10.0 mi West 27.6 mph 33.4 mph N/A   Clear
4:53 PM 84.2 °F - 37.4 °F 19% 29.53 in 10.0 mi West 29.9 mph 42.6 mph N/A   Clear
5:13 PM 82.4 °F - 28.4 °F 14% 29.54 in 10.0 mi West 25.3 mph 39.1 mph N/A   Clear
5:33 PM 82.4 °F - 32.0 °F 16% 29.55 in 10.0 mi NW 32.2 mph 40.3 mph N/A   Clear
5:54 PM 78.8 °F - 30.2 °F 17% 29.56 in 10.0 mi West 28.8 mph 39.1 mph N/A   Clear
6:13 PM 78.8 °F - 32.0 °F 18% 29.56 in 10.0 mi WNW 29.9 mph 36.8 mph N/A   Clear
6:33 PM 77.0 °F - 33.8 °F 21% 29.56 in 10.0 mi WNW 27.6 mph 40.3 mph N/A   Clear
6:53 PM 75.2 °F - 35.6 °F 24% 29.57 in 10.0 mi WNW 25.3 mph 36.8 mph N/A   Clear
7:13 PM 75.2 °F - 37.4 °F 25% 29.58 in 10.0 mi WNW 23.0 mph 34.5 mph N/A   Clear
7:34 PM 73.4 °F - 39.2 °F 29% 29.58 in 10.0 mi WNW 18.4 mph 34.5 mph N/A   Clear
7:53 PM 71.6 °F - 39.2 °F 31% 29.59 in 10.0 mi WNW 24.2 mph 34.5 mph N/A   Clear
8:13 PM 69.8 °F - 42.8 °F 38% 29.60 in 10.0 mi WNW 26.5 mph 32.2 mph N/A   Clear
8:34 PM 68.0 °F - 42.8 °F 40% 29.61 in 10.0 mi WNW 23.0 mph 33.4 mph N/A   Clear
8:53 PM 66.2 °F - 42.8 °F 43% 29.63 in 10.0 mi NW 18.4 mph 34.5 mph N/A   Clear
9:13 PM 64.4 °F - 42.8 °F 45% 29.65 in 10.0 mi WNW 16.1 mph 24.2 mph N/A   Clear
9:34 PM 64.4 °F - 42.8 °F 45% 29.66 in 10.0 mi WNW 16.1 mph 23.0 mph N/A   Clear
9:53 PM 62.6 °F - 44.6 °F 52% 29.67 in 10.0 mi WNW 16.1 mph 19.6 mph N/A   Clear
10:13 PM 62.6 °F - 44.6 °F 52% 29.68 in 10.0 mi NW 16.1 mph 23.0 mph N/A   Clear
10:34 PM 60.8 °F - 42.8 °F 52% 29.70 in 10.0 mi NW 24.2 mph 34.5 mph N/A   Clear
10:53 PM 60.8 °F - 42.8 °F 52% 29.71 in 10.0 mi NW 17.3 mph 25.3 mph N/A   Clear
11:13 PM 59.0 °F - 42.8 °F 55% 29.72 in 10.0 mi NW 17.3 mph 23.0 mph N/A   Clear
11:34 PM 57.2 °F - 42.8 °F 59% 29.74 in 10.0 mi NW 17.3 mph 20.7 mph N/A   Clear
11:53 PM 57.2 °F - 42.8 °F 59% 29.75 in 10.0 mi NW 16.1 mph 23.0 mph N/A   Clear